sensor_id;sensor_type;location;lat;lon;timestamp;temperature;humidity
20398;DHT22;10358;49.590;11.030;2024-03-02T00:00:22;6.10;99.90
20398;DHT22;10358;49.590;11.030;2024-03-02T00:02:50;6.10;99.90
20398;DHT22;10358;49.590;11.030;2024-03-02T00:05:20;6.10;99.90
20398;DHT22;10358;49.590;11.030;2024-03-02T00:07:52;6.20;99.90
20398;DHT22;10358;49.590;11.030;2024-03-02T00:10:20;6.20;99.90
20398;DHT22;10358;49.590;11.030;2024-03-02T00:12:48;6.20;99.90
20398;DHT22;10358;49.590;11.030;2024-03-02T00:15:37;6.20;99.90
20398;DHT22;10358;49.590;11.030;2024-03-02T00:18:05;6.20;99.90
20398;DHT22;10358;49.590;11.030;2024-03-02T00:20:31;6.20;99.90
20398;DHT22;10358;49.590;11.030;2024-03-02T00:23:04;6.20;99.90
20398;DHT22;10358;49.590;11.030;2024-03-02T00:25:41;6.30;99.90
20398;DHT22;10358;49.590;11.030;2024-03-02T00:28:20;6.30;99.90
20398;DHT22;10358;49.590;11.030;2024-03-02T00:31:13;6.20;99.90
20398;DHT22;10358;49.590;11.030;2024-03-02T00:36:07;6.30;99.90
20398;DHT22;10358;49.590;11.030;2024-03-02T00:38:34;6.30;99.90
20398;DHT22;10358;49.590;11.030;2024-03-02T00:41:04;6.30;99.90
20398;DHT22;10358;49.590;11.030;2024-03-02T00:43:43;6.30;99.90
20398;DHT22;10358;49.590;11.030;2024-03-02T00:46:13;6.30;99.90
20398;DHT22;10358;49.590;11.030;2024-03-02T00:48:48;6.40;99.90
20398;DHT22;10358;49.590;11.030;2024-03-02T00:51:15;6.40;99.90
20398;DHT22;10358;49.590;11.030;2024-03-02T00:53:41;6.40;99.90
20398;DHT22;10358;49.590;11.030;2024-03-02T00:56:10;6.40;99.90
20398;DHT22;10358;49.590;11.030;2024-03-02T00:58:36;6.40;99.90
20398;DHT22;10358;49.590;11.030;2024-03-02T01:01:02;6.40;99.90
20398;DHT22;10358;49.590;11.030;2024-03-02T01:03:27;6.40;99.90
20398;DHT22;10358;49.590;11.030;2024-03-02T01:05:53;6.40;99.90
20398;DHT22;10358;49.590;11.030;2024-03-02T01:08:18;6.40;99.90
20398;DHT22;10358;49.590;11.030;2024-03-02T01:10:44;6.40;99.90
20398;DHT22;10358;49.590;11.030;2024-03-02T01:13:09;6.30;99.90
20398;DHT22;10358;49.590;11.030;2024-03-02T01:15:35;6.30;99.90
20398;DHT22;10358;49.590;11.030;2024-03-02T01:18:01;6.30;99.90
20398;DHT22;10358;49.590;11.030;2024-03-02T01:20:26;6.30;99.90
20398;DHT22;10358;49.590;11.030;2024-03-02T01:22:52;6.30;99.90
20398;DHT22;10358;49.590;11.030;2024-03-02T01:25:18;6.20;99.90
20398;DHT22;10358;49.590;11.030;2024-03-02T01:27:44;6.20;99.90
20398;DHT22;10358;49.590;11.030;2024-03-02T01:30:10;6.20;99.90
20398;DHT22;10358;49.590;11.030;2024-03-02T01:32:38;6.20;99.90
20398;DHT22;10358;49.590;11.030;2024-03-02T01:35:04;6.10;99.90
20398;DHT22;10358;49.590;11.030;2024-03-02T01:37:30;6.10;99.90
20398;DHT22;10358;49.590;11.030;2024-03-02T01:39:55;6.10;99.90
20398;DHT22;10358;49.590;11.030;2024-03-02T01:42:21;6.10;99.90
20398;DHT22;10358;49.590;11.030;2024-03-02T01:44:47;6.10;99.90
20398;DHT22;10358;49.590;11.030;2024-03-02T01:47:13;6.10;99.90
20398;DHT22;10358;49.590;11.030;2024-03-02T01:49:39;6.10;99.90
20398;DHT22;10358;49.590;11.030;2024-03-02T01:52:06;6.10;99.90
20398;DHT22;10358;49.590;11.030;2024-03-02T01:54:32;6.10;99.90
20398;DHT22;10358;49.590;11.030;2024-03-02T01:56:58;6.10;99.90
20398;DHT22;10358;49.590;11.030;2024-03-02T01:59:23;6.10;99.90
20398;DHT22;10358;49.590;11.030;2024-03-02T02:01:49;6.10;99.90
20398;DHT22;10358;49.590;11.030;2024-03-02T02:04:15;6.10;99.90
20398;DHT22;10358;49.590;11.030;2024-03-02T02:06:40;6.00;99.90
20398;DHT22;10358;49.590;11.030;2024-03-02T02:09:06;6.00;99.90
20398;DHT22;10358;49.590;11.030;2024-03-02T02:11:34;6.00;99.90
20398;DHT22;10358;49.590;11.030;2024-03-02T02:13:59;6.00;99.90
20398;DHT22;10358;49.590;11.030;2024-03-02T02:16:25;6.00;99.90
20398;DHT22;10358;49.590;11.030;2024-03-02T02:18:50;6.00;99.90
20398;DHT22;10358;49.590;11.030;2024-03-02T02:21:16;6.00;99.90
20398;DHT22;10358;49.590;11.030;2024-03-02T02:23:42;6.00;99.90
20398;DHT22;10358;49.590;11.030;2024-03-02T02:26:11;6.00;99.90
20398;DHT22;10358;49.590;11.030;2024-03-02T02:28:37;6.00;99.90
20398;DHT22;10358;49.590;11.030;2024-03-02T02:31:03;6.00;99.90
20398;DHT22;10358;49.590;11.030;2024-03-02T02:33:28;6.00;99.90
20398;DHT22;10358;49.590;11.030;2024-03-02T02:35:54;6.00;99.90
20398;DHT22;10358;49.590;11.030;2024-03-02T02:38:19;6.00;99.90
20398;DHT22;10358;49.590;11.030;2024-03-02T02:40:45;6.10;99.90
20398;DHT22;10358;49.590;11.030;2024-03-02T02:43:11;6.10;99.90
20398;DHT22;10358;49.590;11.030;2024-03-02T02:45:37;6.10;99.90
20398;DHT22;10358;49.590;11.030;2024-03-02T02:48:03;6.10;99.90
20398;DHT22;10358;49.590;11.030;2024-03-02T02:50:28;6.10;99.90
20398;DHT22;10358;49.590;11.030;2024-03-02T02:52:54;6.10;99.90
20398;DHT22;10358;49.590;11.030;2024-03-02T02:55:19;6.10;99.90
20398;DHT22;10358;49.590;11.030;2024-03-02T02:57:45;6.10;99.90
20398;DHT22;10358;49.590;11.030;2024-03-02T03:00:13;6.10;99.90
20398;DHT22;10358;49.590;11.030;2024-03-02T03:02:44;6.10;99.90
20398;DHT22;10358;49.590;11.030;2024-03-02T03:05:11;6.10;99.90
20398;DHT22;10358;49.590;11.030;2024-03-02T03:07:39;6.10;99.90
20398;DHT22;10358;49.590;11.030;2024-03-02T03:10:05;6.10;99.90
20398;DHT22;10358;49.590;11.030;2024-03-02T03:12:32;6.10;99.90
20398;DHT22;10358;49.590;11.030;2024-03-02T03:14:58;6.10;99.90
20398;DHT22;10358;49.590;11.030;2024-03-02T03:17:23;6.10;99.90
20398;DHT22;10358;49.590;11.030;2024-03-02T03:19:49;6.20;99.90
20398;DHT22;10358;49.590;11.030;2024-03-02T03:22:15;6.20;99.90
20398;DHT22;10358;49.590;11.030;2024-03-02T03:24:41;6.30;99.90
20398;DHT22;10358;49.590;11.030;2024-03-02T03:27:06;6.30;99.90
20398;DHT22;10358;49.590;11.030;2024-03-02T03:29:32;6.30;99.90
20398;DHT22;10358;49.590;11.030;2024-03-02T03:31:57;6.30;99.90
20398;DHT22;10358;49.590;11.030;2024-03-02T03:34:23;6.30;99.90
20398;DHT22;10358;49.590;11.030;2024-03-02T03:36:49;6.30;99.90
20398;DHT22;10358;49.590;11.030;2024-03-02T03:39:14;6.30;99.90
20398;DHT22;10358;49.590;11.030;2024-03-02T03:41:40;6.30;99.90
20398;DHT22;10358;49.590;11.030;2024-03-02T03:44:06;6.30;99.90
20398;DHT22;10358;49.590;11.030;2024-03-02T03:46:31;6.30;99.90
20398;DHT22;10358;49.590;11.030;2024-03-02T03:48:57;6.40;99.90
20398;DHT22;10358;49.590;11.030;2024-03-02T03:51:22;6.40;99.90
20398;DHT22;10358;49.590;11.030;2024-03-02T03:53:48;6.30;99.90
20398;DHT22;10358;49.590;11.030;2024-03-02T03:56:14;6.30;99.90
20398;DHT22;10358;49.590;11.030;2024-03-02T03:58:39;6.30;99.90
20398;DHT22;10358;49.590;11.030;2024-03-02T04:01:05;6.30;99.90
20398;DHT22;10358;49.590;11.030;2024-03-02T04:03:32;6.30;99.90
20398;DHT22;10358;49.590;11.030;2024-03-02T04:05:57;6.20;99.90
20398;DHT22;10358;49.590;11.030;2024-03-02T04:08:23;6.20;99.90
20398;DHT22;10358;49.590;11.030;2024-03-02T04:10:48;6.20;99.90
20398;DHT22;10358;49.590;11.030;2024-03-02T04:13:14;6.10;99.90
20398;DHT22;10358;49.590;11.030;2024-03-02T04:15:40;6.10;99.90
20398;DHT22;10358;49.590;11.030;2024-03-02T04:18:06;6.10;99.90
20398;DHT22;10358;49.590;11.030;2024-03-02T04:20:32;6.10;99.90
20398;DHT22;10358;49.590;11.030;2024-03-02T04:22:57;6.00;99.90
20398;DHT22;10358;49.590;11.030;2024-03-02T04:25:23;6.00;99.90
20398;DHT22;10358;49.590;11.030;2024-03-02T04:27:48;6.00;99.90
20398;DHT22;10358;49.590;11.030;2024-03-02T04:30:15;5.90;99.90
20398;DHT22;10358;49.590;11.030;2024-03-02T04:32:40;5.90;99.90
20398;DHT22;10358;49.590;11.030;2024-03-02T04:35:07;5.90;99.90
20398;DHT22;10358;49.590;11.030;2024-03-02T04:37:36;5.90;99.90
20398;DHT22;10358;49.590;11.030;2024-03-02T04:40:01;5.90;99.90
20398;DHT22;10358;49.590;11.030;2024-03-02T04:42:27;5.90;99.90
20398;DHT22;10358;49.590;11.030;2024-03-02T04:44:52;5.90;99.90
20398;DHT22;10358;49.590;11.030;2024-03-02T04:47:18;5.90;99.90
20398;DHT22;10358;49.590;11.030;2024-03-02T04:49:43;5.90;99.90
20398;DHT22;10358;49.590;11.030;2024-03-02T04:52:09;5.90;99.90
20398;DHT22;10358;49.590;11.030;2024-03-02T04:54:35;5.90;99.90
20398;DHT22;10358;49.590;11.030;2024-03-02T04:57:23;5.90;99.90
20398;DHT22;10358;49.590;11.030;2024-03-02T04:59:49;5.90;99.90
20398;DHT22;10358;49.590;11.030;2024-03-02T05:02:14;5.90;99.90
20398;DHT22;10358;49.590;11.030;2024-03-02T05:04:40;5.90;99.90
20398;DHT22;10358;49.590;11.030;2024-03-02T05:07:08;5.90;99.90
20398;DHT22;10358;49.590;11.030;2024-03-02T05:09:34;5.90;99.90
20398;DHT22;10358;49.590;11.030;2024-03-02T05:12:01;5.90;99.90
20398;DHT22;10358;49.590;11.030;2024-03-02T05:14:46;5.90;99.90
20398;DHT22;10358;49.590;11.030;2024-03-02T05:17:11;5.90;99.90
20398;DHT22;10358;49.590;11.030;2024-03-02T05:19:38;5.90;99.90
20398;DHT22;10358;49.590;11.030;2024-03-02T05:22:04;5.90;99.90
20398;DHT22;10358;49.590;11.030;2024-03-02T05:24:29;5.90;99.90
20398;DHT22;10358;49.590;11.030;2024-03-02T05:26:55;5.90;99.90
20398;DHT22;10358;49.590;11.030;2024-03-02T05:29:21;5.90;99.90
20398;DHT22;10358;49.590;11.030;2024-03-02T05:31:46;5.90;99.90
20398;DHT22;10358;49.590;11.030;2024-03-02T05:34:12;5.90;99.90
20398;DHT22;10358;49.590;11.030;2024-03-02T05:36:38;5.80;99.90
20398;DHT22;10358;49.590;11.030;2024-03-02T05:39:05;5.80;99.90
20398;DHT22;10358;49.590;11.030;2024-03-02T05:41:34;5.80;99.90
20398;DHT22;10358;49.590;11.030;2024-03-02T05:44:00;5.80;99.90
20398;DHT22;10358;49.590;11.030;2024-03-02T05:46:27;5.80;99.90
20398;DHT22;10358;49.590;11.030;2024-03-02T05:48:53;5.80;99.90
20398;DHT22;10358;49.590;11.030;2024-03-02T05:51:19;5.80;99.90
20398;DHT22;10358;49.590;11.030;2024-03-02T05:53:45;5.80;99.90
20398;DHT22;10358;49.590;11.030;2024-03-02T05:56:12;5.80;99.90
20398;DHT22;10358;49.590;11.030;2024-03-02T05:58:38;5.70;99.90
20398;DHT22;10358;49.590;11.030;2024-03-02T06:01:22;5.70;99.90
20398;DHT22;10358;49.590;11.030;2024-03-02T06:03:56;5.70;99.90
20398;DHT22;10358;49.590;11.030;2024-03-02T06:06:22;5.70;99.90
20398;DHT22;10358;49.590;11.030;2024-03-02T06:08:48;5.70;99.90
20398;DHT22;10358;49.590;11.030;2024-03-02T06:11:13;5.70;99.90
20398;DHT22;10358;49.590;11.030;2024-03-02T06:13:39;5.60;99.90
20398;DHT22;10358;49.590;11.030;2024-03-02T06:16:05;5.60;99.90
20398;DHT22;10358;49.590;11.030;2024-03-02T06:18:30;5.60;99.90
20398;DHT22;10358;49.590;11.030;2024-03-02T06:20:56;5.60;99.90
20398;DHT22;10358;49.590;11.030;2024-03-02T06:23:21;5.60;99.90
20398;DHT22;10358;49.590;11.030;2024-03-02T06:25:47;5.60;99.90
20398;DHT22;10358;49.590;11.030;2024-03-02T06:28:12;5.60;99.90
20398;DHT22;10358;49.590;11.030;2024-03-02T06:30:41;5.60;99.90
20398;DHT22;10358;49.590;11.030;2024-03-02T06:33:08;5.60;99.90
20398;DHT22;10358;49.590;11.030;2024-03-02T06:35:34;5.60;99.90
20398;DHT22;10358;49.590;11.030;2024-03-02T06:38:00;5.60;99.90
20398;DHT22;10358;49.590;11.030;2024-03-02T06:40:26;5.60;99.90
20398;DHT22;10358;49.590;11.030;2024-03-02T06:42:52;5.60;99.90
20398;DHT22;10358;49.590;11.030;2024-03-02T06:45:17;5.70;99.90
20398;DHT22;10358;49.590;11.030;2024-03-02T06:47:43;5.70;99.90
20398;DHT22;10358;49.590;11.030;2024-03-02T06:50:09;5.70;99.90
20398;DHT22;10358;49.590;11.030;2024-03-02T06:52:35;5.80;99.90
20398;DHT22;10358;49.590;11.030;2024-03-02T06:55:01;5.80;99.90
20398;DHT22;10358;49.590;11.030;2024-03-02T06:57:26;5.80;99.90
20398;DHT22;10358;49.590;11.030;2024-03-02T06:59:52;5.80;99.90
20398;DHT22;10358;49.590;11.030;2024-03-02T07:02:22;5.90;99.90
20398;DHT22;10358;49.590;11.030;2024-03-02T07:04:48;5.90;99.90
20398;DHT22;10358;49.590;11.030;2024-03-02T07:07:15;5.90;99.90
20398;DHT22;10358;49.590;11.030;2024-03-02T07:09:41;5.90;99.90
20398;DHT22;10358;49.590;11.030;2024-03-02T07:12:06;6.00;99.90
20398;DHT22;10358;49.590;11.030;2024-03-02T07:14:32;6.10;99.90
20398;DHT22;10358;49.590;11.030;2024-03-02T07:17:16;6.20;99.90
20398;DHT22;10358;49.590;11.030;2024-03-02T07:19:42;6.30;99.90
20398;DHT22;10358;49.590;11.030;2024-03-02T07:22:07;6.40;99.90
20398;DHT22;10358;49.590;11.030;2024-03-02T07:24:41;6.50;99.90
20398;DHT22;10358;49.590;11.030;2024-03-02T07:27:07;6.60;99.90
20398;DHT22;10358;49.590;11.030;2024-03-02T07:29:33;6.70;99.90
20398;DHT22;10358;49.590;11.030;2024-03-02T07:32:00;6.80;99.90
20398;DHT22;10358;49.590;11.030;2024-03-02T07:34:25;7.00;99.90
20398;DHT22;10358;49.590;11.030;2024-03-02T07:36:51;7.10;99.90
20398;DHT22;10358;49.590;11.030;2024-03-02T07:39:17;7.20;99.90
20398;DHT22;10358;49.590;11.030;2024-03-02T07:41:42;7.40;99.90
20398;DHT22;10358;49.590;11.030;2024-03-02T07:44:10;7.40;99.90
20398;DHT22;10358;49.590;11.030;2024-03-02T07:46:40;7.50;99.90
20398;DHT22;10358;49.590;11.030;2024-03-02T07:49:06;7.50;99.90
20398;DHT22;10358;49.590;11.030;2024-03-02T07:51:31;7.70;99.90
20398;DHT22;10358;49.590;11.030;2024-03-02T07:53:57;7.70;99.90
20398;DHT22;10358;49.590;11.030;2024-03-02T07:56:22;7.80;99.90
20398;DHT22;10358;49.590;11.030;2024-03-02T07:58:50;7.90;99.90
20398;DHT22;10358;49.590;11.030;2024-03-02T08:01:16;8.00;99.90
20398;DHT22;10358;49.590;11.030;2024-03-02T08:03:43;8.10;99.90
20398;DHT22;10358;49.590;11.030;2024-03-02T08:06:16;8.20;99.90
20398;DHT22;10358;49.590;11.030;2024-03-02T08:08:42;8.20;99.90
20398;DHT22;10358;49.590;11.030;2024-03-02T08:11:07;8.30;99.90
20398;DHT22;10358;49.590;11.030;2024-03-02T08:13:33;8.30;99.90
20398;DHT22;10358;49.590;11.030;2024-03-02T08:15:58;8.40;99.90
20398;DHT22;10358;49.590;11.030;2024-03-02T08:18:24;8.40;99.90
20398;DHT22;10358;49.590;11.030;2024-03-02T08:20:50;8.50;99.90
20398;DHT22;10358;49.590;11.030;2024-03-02T08:23:16;8.60;99.90
20398;DHT22;10358;49.590;11.030;2024-03-02T08:25:42;8.60;99.90
20398;DHT22;10358;49.590;11.030;2024-03-02T08:28:07;8.60;99.90
20398;DHT22;10358;49.590;11.030;2024-03-02T08:30:33;8.60;99.90
20398;DHT22;10358;49.590;11.030;2024-03-02T08:33:00;8.70;99.90
20398;DHT22;10358;49.590;11.030;2024-03-02T08:35:26;8.70;99.90
20398;DHT22;10358;49.590;11.030;2024-03-02T08:37:51;8.80;99.90
20398;DHT22;10358;49.590;11.030;2024-03-02T08:40:17;8.80;99.90
20398;DHT22;10358;49.590;11.030;2024-03-02T08:42:42;8.90;99.90
20398;DHT22;10358;49.590;11.030;2024-03-02T08:45:08;9.00;99.90
20398;DHT22;10358;49.590;11.030;2024-03-02T08:47:34;9.00;99.90
20398;DHT22;10358;49.590;11.030;2024-03-02T08:50:00;9.10;99.90
20398;DHT22;10358;49.590;11.030;2024-03-02T08:52:26;9.20;99.90
20398;DHT22;10358;49.590;11.030;2024-03-02T08:54:52;9.30;99.90
20398;DHT22;10358;49.590;11.030;2024-03-02T08:57:18;9.40;99.90
20398;DHT22;10358;49.590;11.030;2024-03-02T08:59:43;9.50;99.90
20398;DHT22;10358;49.590;11.030;2024-03-02T09:02:09;9.60;99.90
20398;DHT22;10358;49.590;11.030;2024-03-02T09:04:36;9.70;99.90
20398;DHT22;10358;49.590;11.030;2024-03-02T09:07:02;9.80;99.90
20398;DHT22;10358;49.590;11.030;2024-03-02T09:09:28;9.90;99.90
20398;DHT22;10358;49.590;11.030;2024-03-02T09:11:55;10.00;99.90
20398;DHT22;10358;49.590;11.030;2024-03-02T09:14:23;10.10;99.90
20398;DHT22;10358;49.590;11.030;2024-03-02T09:16:48;10.20;99.90
20398;DHT22;10358;49.590;11.030;2024-03-02T09:19:14;10.30;99.90
20398;DHT22;10358;49.590;11.030;2024-03-02T09:21:39;10.30;99.90
20398;DHT22;10358;49.590;11.030;2024-03-02T09:24:07;10.30;99.90
20398;DHT22;10358;49.590;11.030;2024-03-02T09:26:32;10.40;99.90
20398;DHT22;10358;49.590;11.030;2024-03-02T09:28:58;10.50;99.90
20398;DHT22;10358;49.590;11.030;2024-03-02T09:31:23;10.60;99.90
20398;DHT22;10358;49.590;11.030;2024-03-02T09:33:49;10.70;99.90
20398;DHT22;10358;49.590;11.030;2024-03-02T09:36:18;10.60;99.90
20398;DHT22;10358;49.590;11.030;2024-03-02T09:38:44;10.70;99.90
20398;DHT22;10358;49.590;11.030;2024-03-02T09:41:09;10.70;99.90
20398;DHT22;10358;49.590;11.030;2024-03-02T09:43:35;10.60;99.90
20398;DHT22;10358;49.590;11.030;2024-03-02T09:46:01;10.70;99.90
20398;DHT22;10358;49.590;11.030;2024-03-02T09:48:27;10.80;99.90
20398;DHT22;10358;49.590;11.030;2024-03-02T09:50:52;10.90;99.90
20398;DHT22;10358;49.590;11.030;2024-03-02T09:53:18;11.10;99.90
20398;DHT22;10358;49.590;11.030;2024-03-02T09:55:47;11.10;99.90
20398;DHT22;10358;49.590;11.030;2024-03-02T09:58:12;11.20;99.90
20398;DHT22;10358;49.590;11.030;2024-03-02T10:00:38;11.30;99.90
20398;DHT22;10358;49.590;11.030;2024-03-02T10:03:04;11.30;99.90
20398;DHT22;10358;49.590;11.030;2024-03-02T10:05:32;11.40;99.90
20398;DHT22;10358;49.590;11.030;2024-03-02T10:08:02;11.50;99.90
20398;DHT22;10358;49.590;11.030;2024-03-02T10:10:38;11.60;99.90
20398;DHT22;10358;49.590;11.030;2024-03-02T10:13:08;11.70;99.90
20398;DHT22;10358;49.590;11.030;2024-03-02T10:15:34;11.80;99.90
20398;DHT22;10358;49.590;11.030;2024-03-02T10:17:59;11.90;99.90
20398;DHT22;10358;49.590;11.030;2024-03-02T10:20:26;12.00;99.90
20398;DHT22;10358;49.590;11.030;2024-03-02T10:22:55;12.10;99.90
20398;DHT22;10358;49.590;11.030;2024-03-02T10:25:30;12.20;99.90
20398;DHT22;10358;49.590;11.030;2024-03-02T10:27:59;12.30;99.90
20398;DHT22;10358;49.590;11.030;2024-03-02T10:30:26;12.40;99.90
20398;DHT22;10358;49.590;11.030;2024-03-02T10:32:56;12.50;99.90
20398;DHT22;10358;49.590;11.030;2024-03-02T10:35:22;12.60;99.90
20398;DHT22;10358;49.590;11.030;2024-03-02T10:37:52;12.70;99.90
20398;DHT22;10358;49.590;11.030;2024-03-02T10:40:21;12.80;99.90
20398;DHT22;10358;49.590;11.030;2024-03-02T10:42:47;12.90;99.90
20398;DHT22;10358;49.590;11.030;2024-03-02T10:45:15;13.00;99.90
20398;DHT22;10358;49.590;11.030;2024-03-02T10:47:43;13.10;99.90
20398;DHT22;10358;49.590;11.030;2024-03-02T10:50:10;13.10;99.90
20398;DHT22;10358;49.590;11.030;2024-03-02T10:52:36;13.00;99.90
20398;DHT22;10358;49.590;11.030;2024-03-02T10:55:05;13.10;99.90
20398;DHT22;10358;49.590;11.030;2024-03-02T10:57:41;13.10;99.90
20398;DHT22;10358;49.590;11.030;2024-03-02T11:00:11;13.20;99.90
20398;DHT22;10358;49.590;11.030;2024-03-02T11:02:51;13.30;99.90
20398;DHT22;10358;49.590;11.030;2024-03-02T11:05:28;13.40;99.90
20398;DHT22;10358;49.590;11.030;2024-03-02T11:08:00;13.60;99.90
20398;DHT22;10358;49.590;11.030;2024-03-02T11:10:35;13.60;99.90
20398;DHT22;10358;49.590;11.030;2024-03-02T11:13:05;13.70;99.90
20398;DHT22;10358;49.590;11.030;2024-03-02T11:15:31;13.80;99.90
20398;DHT22;10358;49.590;11.030;2024-03-02T11:18:00;13.80;99.90
20398;DHT22;10358;49.590;11.030;2024-03-02T11:20:26;13.80;99.90
20398;DHT22;10358;49.590;11.030;2024-03-02T11:22:52;13.80;99.90
20398;DHT22;10358;49.590;11.030;2024-03-02T11:25:28;13.80;99.90
20398;DHT22;10358;49.590;11.030;2024-03-02T11:33:00;13.90;99.90
20398;DHT22;10358;49.590;11.030;2024-03-02T11:35:37;14.00;99.90
20398;DHT22;10358;49.590;11.030;2024-03-02T11:38:03;14.00;99.90
20398;DHT22;10358;49.590;11.030;2024-03-02T11:40:30;13.90;99.90
20398;DHT22;10358;49.590;11.030;2024-03-02T11:42:57;13.90;99.90
20398;DHT22;10358;49.590;11.030;2024-03-02T11:45:26;13.90;99.90
20398;DHT22;10358;49.590;11.030;2024-03-02T11:47:57;13.90;99.90
20398;DHT22;10358;49.590;11.030;2024-03-02T11:50:36;13.90;99.90
20398;DHT22;10358;49.590;11.030;2024-03-02T11:53:06;13.80;99.90
20398;DHT22;10358;49.590;11.030;2024-03-02T11:55:35;13.90;99.90
20398;DHT22;10358;49.590;11.030;2024-03-02T11:58:03;13.90;99.90
20398;DHT22;10358;49.590;11.030;2024-03-02T12:00:29;13.90;99.90
20398;DHT22;10358;49.590;11.030;2024-03-02T12:03:02;13.80;99.90
20398;DHT22;10358;49.590;11.030;2024-03-02T12:05:30;13.90;99.90
20398;DHT22;10358;49.590;11.030;2024-03-02T12:08:01;14.00;99.90
20398;DHT22;10358;49.590;11.030;2024-03-02T12:10:27;14.10;99.90
20398;DHT22;10358;49.590;11.030;2024-03-02T12:13:04;14.10;99.90
20398;DHT22;10358;49.590;11.030;2024-03-02T12:15:34;14.20;99.90
20398;DHT22;10358;49.590;11.030;2024-03-02T12:18:01;14.30;99.90
20398;DHT22;10358;49.590;11.030;2024-03-02T12:20:29;14.40;99.90
20398;DHT22;10358;49.590;11.030;2024-03-02T12:22:57;14.50;99.90
20398;DHT22;10358;49.590;11.030;2024-03-02T12:25:24;14.50;99.90
20398;DHT22;10358;49.590;11.030;2024-03-02T12:27:51;14.60;99.90
20398;DHT22;10358;49.590;11.030;2024-03-02T12:30:18;14.50;99.90
20398;DHT22;10358;49.590;11.030;2024-03-02T12:32:45;14.60;99.90
20398;DHT22;10358;49.590;11.030;2024-03-02T12:35:11;14.70;99.90
20398;DHT22;10358;49.590;11.030;2024-03-02T12:38:01;14.80;99.90
20398;DHT22;10358;49.590;11.030;2024-03-02T12:40:27;14.80;99.90
20398;DHT22;10358;49.590;11.030;2024-03-02T12:42:53;14.80;99.90
20398;DHT22;10358;49.590;11.030;2024-03-02T12:45:18;14.80;99.90
20398;DHT22;10358;49.590;11.030;2024-03-02T12:47:49;14.80;99.90
20398;DHT22;10358;49.590;11.030;2024-03-02T12:50:14;14.80;99.90
20398;DHT22;10358;49.590;11.030;2024-03-02T12:52:40;14.70;99.90
20398;DHT22;10358;49.590;11.030;2024-03-02T12:55:06;14.70;99.90
20398;DHT22;10358;49.590;11.030;2024-03-02T12:57:33;14.70;99.90
20398;DHT22;10358;49.590;11.030;2024-03-02T13:00:05;14.60;99.90
20398;DHT22;10358;49.590;11.030;2024-03-02T13:02:35;14.70;99.90
20398;DHT22;10358;49.590;11.030;2024-03-02T13:05:02;14.60;99.90
20398;DHT22;10358;49.590;11.030;2024-03-02T13:07:30;14.60;99.90
20398;DHT22;10358;49.590;11.030;2024-03-02T13:09:56;14.60;99.90
20398;DHT22;10358;49.590;11.030;2024-03-02T13:12:23;14.60;99.90
20398;DHT22;10358;49.590;11.030;2024-03-02T13:14:52;14.70;99.90
20398;DHT22;10358;49.590;11.030;2024-03-02T13:17:19;14.80;99.90
20398;DHT22;10358;49.590;11.030;2024-03-02T13:19:55;14.80;99.90
20398;DHT22;10358;49.590;11.030;2024-03-02T13:22:20;14.90;99.90
20398;DHT22;10358;49.590;11.030;2024-03-02T13:24:47;15.10;99.90
20398;DHT22;10358;49.590;11.030;2024-03-02T13:27:13;15.20;99.90
20398;DHT22;10358;49.590;11.030;2024-03-02T13:29:38;15.50;99.90
20398;DHT22;10358;49.590;11.030;2024-03-02T13:32:05;15.60;99.90
20398;DHT22;10358;49.590;11.030;2024-03-02T13:34:31;15.70;99.90
20398;DHT22;10358;49.590;11.030;2024-03-02T13:36:58;15.80;99.90
20398;DHT22;10358;49.590;11.030;2024-03-02T13:39:27;15.80;99.90
20398;DHT22;10358;49.590;11.030;2024-03-02T13:41:56;15.90;99.90
20398;DHT22;10358;49.590;11.030;2024-03-02T13:44:28;15.90;99.90
20398;DHT22;10358;49.590;11.030;2024-03-02T13:46:54;16.10;99.90
20398;DHT22;10358;49.590;11.030;2024-03-02T13:49:20;16.20;99.90
20398;DHT22;10358;49.590;11.030;2024-03-02T13:51:45;16.40;99.90
20398;DHT22;10358;49.590;11.030;2024-03-02T13:54:11;16.50;99.90
20398;DHT22;10358;49.590;11.030;2024-03-02T13:56:37;16.70;99.90
20398;DHT22;10358;49.590;11.030;2024-03-02T13:59:04;16.80;99.90
20398;DHT22;10358;49.590;11.030;2024-03-02T14:01:31;17.00;99.90
20398;DHT22;10358;49.590;11.030;2024-03-02T14:03:58;17.00;99.90
20398;DHT22;10358;49.590;11.030;2024-03-02T14:06:25;17.00;99.90
20398;DHT22;10358;49.590;11.030;2024-03-02T14:08:52;17.00;99.90
20398;DHT22;10358;49.590;11.030;2024-03-02T14:11:18;17.20;99.90
20398;DHT22;10358;49.590;11.030;2024-03-02T14:13:44;17.10;99.90
20398;DHT22;10358;49.590;11.030;2024-03-02T14:16:15;17.10;98.90
20398;DHT22;10358;49.590;11.030;2024-03-02T14:18:41;17.00;99.60
20398;DHT22;10358;49.590;11.030;2024-03-02T14:21:07;16.90;98.30
20398;DHT22;10358;49.590;11.030;2024-03-02T14:23:33;16.80;97.70
20398;DHT22;10358;49.590;11.030;2024-03-02T14:25:59;16.60;98.50
20398;DHT22;10358;49.590;11.030;2024-03-02T14:28:24;16.70;97.30
20398;DHT22;10358;49.590;11.030;2024-03-02T14:30:50;16.70;96.80
20398;DHT22;10358;49.590;11.030;2024-03-02T14:33:16;16.90;97.80
20398;DHT22;10358;49.590;11.030;2024-03-02T14:35:42;17.00;98.00
20398;DHT22;10358;49.590;11.030;2024-03-02T14:38:07;17.10;96.50
20398;DHT22;10358;49.590;11.030;2024-03-02T14:40:33;17.10;96.70
20398;DHT22;10358;49.590;11.030;2024-03-02T14:42:59;17.20;97.10
20398;DHT22;10358;49.590;11.030;2024-03-02T14:45:24;17.20;96.50
20398;DHT22;10358;49.590;11.030;2024-03-02T14:47:50;17.20;96.50
20398;DHT22;10358;49.590;11.030;2024-03-02T14:50:17;17.30;96.50
20398;DHT22;10358;49.590;11.030;2024-03-02T14:52:44;17.50;96.50
20398;DHT22;10358;49.590;11.030;2024-03-02T14:55:10;17.70;96.10
20398;DHT22;10358;49.590;11.030;2024-03-02T14:57:36;17.80;95.20
20398;DHT22;10358;49.590;11.030;2024-03-02T15:00:01;17.80;94.70
20398;DHT22;10358;49.590;11.030;2024-03-02T15:02:27;17.90;95.50
20398;DHT22;10358;49.590;11.030;2024-03-02T15:04:54;18.00;94.80
20398;DHT22;10358;49.590;11.030;2024-03-02T15:07:19;18.00;93.90
20398;DHT22;10358;49.590;11.030;2024-03-02T15:09:45;18.10;94.30
20398;DHT22;10358;49.590;11.030;2024-03-02T15:12:11;18.10;92.30
20398;DHT22;10358;49.590;11.030;2024-03-02T15:14:39;17.90;92.10
20398;DHT22;10358;49.590;11.030;2024-03-02T15:17:12;17.80;92.60
20398;DHT22;10358;49.590;11.030;2024-03-02T15:19:43;17.70;92.20
20398;DHT22;10358;49.590;11.030;2024-03-02T15:22:09;17.80;92.70
20398;DHT22;10358;49.590;11.030;2024-03-02T15:24:35;17.90;93.00
20398;DHT22;10358;49.590;11.030;2024-03-02T15:27:01;18.00;92.80
20398;DHT22;10358;49.590;11.030;2024-03-02T15:29:34;18.10;92.40
20398;DHT22;10358;49.590;11.030;2024-03-02T15:31:59;18.20;92.20